Time;durP1;ratioP1;P1;durP2;ratioP2;P2;SDS_P1;SDS_P2;PMS_P1;PMS_P2;Temp;Humidity;BMP_temperature;BMP_pressure;BME280_temperature;BME280_humidity;BME280_pressure;Samples;Min_cycle;Max_cycle;Signal;HPM_P1;HPM_P2
2023/08/22 00:00:03;;;;;;;7.23;6.43;;;;;;;22.14;100.00;96686.59;5007932;28;105800;-78
2023/08/22 00:02:39;;;;;;;7.83;6.63;;;;;;;22.05;100.00;96691.19;5006900;28;102066;-79
2023/08/22 00:05:07;;;;;;;5.83;5.43;;;;;;;22.17;100.00;96683.28;5007410;28;104852;-79
2023/08/22 00:07:36;;;;;;;6.90;6.20;;;;;;;22.33;100.00;96681.69;5009320;28;103214;-79
2023/08/22 00:10:03;;;;;;;7.57;6.50;;;;;;;22.30;100.00;96683.13;5011617;28;102021;-79
2023/08/22 00:12:31;;;;;;;6.90;6.20;;;;;;;22.30;100.00;96677.72;5007896;28;105205;-79
2023/08/22 00:14:57;;;;;;;6.47;5.87;;;;;;;22.29;100.00;96686.16;5008410;28;102027;-79
2023/08/22 00:17:24;;;;;;;7.17;6.57;;;;;;;22.12;100.00;96675.31;5008595;28;104916;-79
2023/08/22 00:19:52;;;;;;;7.57;6.83;;;;;;;21.90;100.00;96681.59;5007539;28;105801;-79
2023/08/22 00:22:19;;;;;;;6.30;5.67;;;;;;;21.98;100.00;96677.34;5008289;28;102096;-79
2023/08/22 00:24:47;;;;;;;7.20;6.50;;;;;;;22.04;100.00;96684.19;5008112;28;105510;-79
2023/08/22 00:27:14;;;;;;;6.50;5.90;;;;;;;21.90;100.00;96686.25;5007666;28;105902;-79
2023/08/22 00:29:41;;;;;;;6.70;6.10;;;;;;;21.86;100.00;96687.97;5045633;27;101962;-79
2023/08/22 00:32:08;;;;;;;6.97;6.37;;;;;;;22.10;100.00;96681.03;5007500;28;105270;-79
2023/08/22 00:34:35;;;;;;;6.97;6.27;;;;;;;22.20;100.00;96672.59;5008105;28;102022;-79
2023/08/22 00:37:02;;;;;;;6.83;6.20;;;;;;;22.14;100.00;96664.94;5008055;28;105954;-79
2023/08/22 00:39:29;;;;;;;7.20;6.50;;;;;;;22.28;100.00;96662.91;5007366;28;104396;-79
2023/08/22 00:41:57;;;;;;;7.20;6.53;;;;;;;22.32;100.00;96664.63;5007954;28;102036;-79
2023/08/22 00:44:24;;;;;;;7.53;6.83;;;;;;;22.07;100.00;96664.63;5007970;28;105447;-79
2023/08/22 00:46:51;;;;;;;6.77;6.20;;;;;;;22.28;100.00;96668.31;5007213;28;105095;-79
2023/08/22 00:49:19;;;;;;;7.20;5.80;;;;;;;22.35;100.00;96674.81;5007996;28;102160;-79
2023/08/22 00:51:46;;;;;;;6.90;6.33;;;;;;;22.23;100.00;96665.75;5044433;27;105581;-79
2023/08/22 00:54:14;;;;;;;7.50;6.77;;;;;;;22.20;100.00;96669.09;5007846;28;102041;-79
2023/08/22 00:56:42;;;;;;;8.00;6.97;;;;;;;22.06;100.00;96674.63;5007887;28;103861;-78
2023/08/22 00:59:11;;;;;;;6.87;5.90;;;;;;;22.15;100.00;96674.66;5040949;27;104257;-78
2023/08/22 01:01:38;;;;;;;7.37;6.67;;;;;;;22.03;100.00;96669.06;5007925;28;101999;-79
2023/08/22 01:04:05;;;;;;;7.10;6.40;;;;;;;22.11;100.00;96668.25;5007843;28;103805;-82
2023/08/22 01:06:41;;;;;;;7.20;6.50;;;;;;;22.17;100.00;96661.59;5007057;28;105390;-82
2023/08/22 01:09:24;;;;;;;6.50;5.90;;;;;;;22.24;100.00;96661.94;5007759;28;101864;-83
2023/08/22 01:11:53;;;;;;;6.93;5.83;;;;;;;21.89;100.00;96665.66;5007840;28;105399;-83
2023/08/22 01:14:24;;;;;;;7.03;6.40;;;;;;;21.79;100.00;96663.28;5010603;28;105180;-83
2023/08/22 01:16:51;;;;;;;6.37;5.77;;;;;;;21.92;100.00;96668.56;5010649;28;105432;-82
2023/08/22 01:19:20;;;;;;;6.47;5.97;;;;;;;21.89;100.00;96660.25;5010568;28;105924;-82
2023/08/22 01:21:51;;;;;;;6.90;6.20;;;;;;;22.00;100.00;96664.25;5010752;28;102132;-82
2023/08/22 01:24:18;;;;;;;7.40;6.80;;;;;;;21.79;100.00;96657.88;5011217;28;105659;-82
2023/08/22 01:26:46;;;;;;;7.43;6.70;;;;;;;21.55;100.00;96668.25;5010274;28;105868;-82
2023/08/22 01:29:19;;;;;;;7.93;7.23;;;;;;;21.52;100.00;96660.78;5010806;28;102185;-82
2023/08/22 01:31:52;;;;;;;6.63;6.03;;;;;;;21.50;100.00;96660.25;5011095;28;104302;-79
2023/08/22 01:34:24;;;;;;;7.30;6.60;;;;;;;21.59;100.00;96663.81;5010224;28;105569;-79
2023/08/22 01:36:55;;;;;;;7.40;6.27;;;;;;;21.62;100.00;96657.75;5014172;28;101934;-79
2023/08/22 01:39:24;;;;;;;7.70;6.93;;;;;;;21.27;100.00;96662.25;5010120;28;105739;-80
2023/08/22 01:41:51;;;;;;;6.60;6.00;;;;;;;21.47;100.00;96658.19;5044608;27;102249;-81
2023/08/22 01:44:18;;;;;;;7.53;6.80;;;;;;;21.37;100.00;96655.78;5010704;28;104470;-81
2023/08/22 01:46:45;;;;;;;6.37;5.87;;;;;;;21.68;100.00;96662.75;5009785;28;105084;-81
2023/08/22 01:49:12;;;;;;;6.97;6.27;;;;;;;21.69;100.00;96658.16;5010631;28;102275;-78
2023/08/22 01:51:39;;;;;;;7.67;6.87;;;;;;;21.51;100.00;96657.25;5010462;28;105470;-82
2023/08/22 01:54:07;;;;;;;8.83;8.03;;;;;;;20.94;100.00;96665.56;5009980;28;105478;-82
2023/08/22 01:56:34;;;;;;;7.77;7.07;;;;;;;21.18;100.00;96669.53;5010530;28;102060;-76
2023/08/22 01:59:01;;;;;;;8.23;7.33;;;;;;;21.24;100.00;96670.16;5013435;28;105403;-76
2023/08/22 02:01:28;;;;;;;7.90;7.07;;;;;;;21.22;100.00;96667.00;5010391;28;101930;-76
2023/08/22 02:04:01;;;;;;;8.43;7.63;;;;;;;21.05;100.00;96666.91;5010467;28;105147;-76
2023/08/22 02:06:28;;;;;;;7.63;6.93;;;;;;;21.10;100.00;96674.88;5009292;28;105144;-79
2023/08/22 02:08:57;;;;;;;7.60;6.87;;;;;;;21.07;100.00;96657.38;5010324;28;101977;-80
2023/08/22 02:11:26;;;;;;;8.23;7.43;;;;;;;20.92;100.00;96659.69;5010311;28;105938;-83
2023/08/22 02:13:53;;;;;;;7.90;7.10;;;;;;;20.77;100.00;96662.72;5009517;28;105589;-83
2023/08/22 02:16:20;;;;;;;7.83;7.03;;;;;;;20.74;100.00;96666.03;5010195;28;101898;-83
2023/08/22 02:18:47;;;;;;;8.60;7.17;;;;;;;20.66;100.00;96662.16;5010306;28;105118;-78
2023/08/22 02:21:14;;;;;;;7.90;7.10;;;;;;;20.60;100.00;96660.69;5012842;28;104109;-78
2023/08/22 02:23:42;;;;;;;7.87;7.10;;;;;;;20.77;100.00;96668.13;5010090;28;105529;-78
2023/08/22 02:26:10;;;;;;;9.30;7.03;;;;;;;20.80;100.00;96662.91;5010671;28;103003;-78
2023/08/22 02:28:38;;;;;;;9.33;7.10;;;;;;;20.76;100.00;96661.91;5009139;28;101922;-78
2023/08/22 02:31:05;;;;;;;7.97;7.27;;;;;;;20.77;100.00;96662.72;5009995;28;105552;-78
2023/08/22 02:33:32;;;;;;;8.17;7.33;;;;;;;20.60;100.00;96660.69;5009313;28;105476;-78
2023/08/22 02:36:00;;;;;;;8.07;7.37;;;;;;;20.71;100.00;96667.44;5009786;28;102112;-77
2023/08/22 02:38:27;;;;;;;7.83;7.13;;;;;;;20.56;100.00;96658.91;5009857;28;105431;-77
2023/08/22 02:40:54;;;;;;;8.27;7.47;;;;;;;20.60;100.00;96670.72;5012665;28;105841;-77
2023/08/22 02:43:21;;;;;;;7.93;7.20;;;;;;;20.47;100.00;96661.53;5009929;28;105163;-77
2023/08/22 02:45:50;;;;;;;7.70;7.00;;;;;;;20.41;100.00;96661.97;5009160;28;106003;-77
2023/08/22 02:48:17;;;;;;;7.80;7.03;;;;;;;20.44;100.00;96659.44;5009408;28;101978;-77
2023/08/22 02:50:44;;;;;;;8.53;7.10;;;;;;;20.54;100.00;96653.03;5009825;28;105320;-78
2023/08/22 02:53:14;;;;;;;9.57;7.23;;;;;;;20.62;100.00;96652.28;5042727;27;105680;-78
2023/08/22 02:55:41;;;;;;;7.97;7.17;;;;;;;20.62;100.00;96647.69;5009818;28;101872;-79
2023/08/22 02:58:08;;;;;;;8.40;7.50;;;;;;;20.52;100.00;96645.22;5009395;28;105343;-79
2023/08/22 03:00:36;;;;;;;7.10;6.40;;;;;;;20.31;100.00;96651.38;5009001;28;104443;-80
2023/08/22 03:03:05;;;;;;;8.17;7.30;;;;;;;20.21;100.00;96651.63;5012623;28;101822;-81
2023/08/22 03:05:33;;;;;;;7.93;7.10;;;;;;;20.24;100.00;96651.81;5008790;28;105273;-78
2023/08/22 03:08:01;;;;;;;7.57;6.80;;;;;;;20.12;100.00;96645.34;5009575;28;101897;-78
2023/08/22 03:10:27;;;;;;;7.70;6.90;;;;;;;20.10;100.00;96644.88;5009332;28;105080;-77
2023/08/22 03:12:55;;;;;;;8.20;7.37;;;;;;;20.18;100.00;96649.53;5008686;28;105068;-77
2023/08/22 03:15:23;;;;;;;7.43;6.73;;;;;;;20.31;100.00;96654.09;5009326;28;102032;-77
2023/08/22 03:17:50;;;;;;;7.43;6.60;;;;;;;20.23;100.00;96655.63;5042869;27;105081;-77
2023/08/22 03:20:18;;;;;;;8.67;6.67;;;;;;;20.31;100.00;96644.09;5008767;28;105732;-77
2023/08/22 03:22:45;;;;;;;7.53;6.87;;;;;;;20.37;100.00;96650.97;5009197;28;101898;-77
2023/08/22 03:25:12;;;;;;;8.73;7.13;;;;;;;20.24;100.00;96653.72;5012077;28;104836;-77
2023/08/22 03:27:41;;;;;;;7.30;6.30;;;;;;;20.25;100.00;96653.41;5009033;28;101988;-79
2023/08/22 03:30:10;;;;;;;7.67;7.00;;;;;;;20.28;100.00;96652.00;5009235;28;103886;-79
2023/08/22 03:32:37;;;;;;;8.10;7.30;;;;;;;20.09;100.00;96649.47;5008186;28;105542;-79
2023/08/22 03:35:05;;;;;;;7.27;6.57;;;;;;;20.18;100.00;96650.34;5009081;28;101908;-79
2023/08/22 03:37:35;;;;;;;7.70;7.10;;;;;;;20.30;100.00;96649.78;5009085;28;103727;-79
2023/08/22 03:40:02;;;;;;;7.23;6.63;;;;;;;20.09;100.00;96637.84;5008238;28;105120;-79
2023/08/22 03:42:30;;;;;;;7.53;6.83;;;;;;;19.97;100.00;96643.75;5008970;28;102102;-79
2023/08/22 03:45:03;;;;;;;6.90;6.30;;;;;;;20.08;100.00;96645.16;5008955;28;105874;-76
2023/08/22 03:47:29;;;;;;;8.17;7.30;;;;;;;19.99;100.00;96633.44;5011152;28;104514;-76
2023/08/22 03:49:57;;;;;;;7.73;7.03;;;;;;;20.00;100.00;96634.25;5009000;28;104154;-76
2023/08/22 03:52:27;;;;;;;7.60;6.90;;;;;;;20.04;100.00;96636.03;5041829;27;106166;-81
2023/08/22 03:54:55;;;;;;;7.83;7.07;;;;;;;20.05;100.00;96631.44;5008671;28;102024;-80
2023/08/22 03:57:22;;;;;;;7.60;6.93;;;;;;;19.99;100.00;96638.06;5009384;28;105065;-80
2023/08/22 03:59:49;;;;;;;7.00;6.50;;;;;;;19.87;100.00;96629.66;5008784;28;105647;-80
2023/08/22 04:02:17;;;;;;;7.10;6.47;;;;;;;19.81;100.00;96636.28;5009245;28;102410;-79
2023/08/22 04:04:43;;;;;;;7.33;6.63;;;;;;;19.77;100.00;96636.09;5009310;28;104869;-80
2023/08/22 04:07:10;;;;;;;7.50;6.77;;;;;;;19.80;100.00;96634.69;5008784;28;105410;-79
2023/08/22 04:09:37;;;;;;;7.50;6.80;;;;;;;19.73;100.00;96639.69;5012595;28;102327;-79
2023/08/22 04:12:07;;;;;;;8.27;6.87;;;;;;;19.77;100.00;96638.78;5008767;28;105011;-79
2023/08/22 04:14:35;;;;;;;7.83;7.13;;;;;;;19.76;100.00;96653.38;5009458;28;101898;-78
2023/08/22 04:17:03;;;;;;;7.77;7.17;;;;;;;19.67;100.00;96654.41;5009221;28;105099;-78
2023/08/22 04:19:29;;;;;;;8.03;7.33;;;;;;;19.70;100.00;96657.28;5008430;28;105529;-78
2023/08/22 04:21:57;;;;;;;8.40;7.60;;;;;;;19.85;100.00;96651.59;5009155;28;102076;-78
2023/08/22 04:24:23;;;;;;;10.03;8.63;;;;;;;19.94;100.00;96651.66;5010508;28;102567;-78
2023/08/22 04:26:51;;;;;;;8.93;7.33;;;;;;;19.94;100.00;96652.44;5008457;28;105173;-78
2023/08/22 04:29:20;;;;;;;8.50;7.70;;;;;;;19.92;100.00;96643.06;5009023;28;101860;-78
2023/08/22 04:31:46;;;;;;;8.67;7.77;;;;;;;19.99;100.00;96654.25;5010443;28;104447;-77
2023/08/22 04:34:15;;;;;;;9.07;8.13;;;;;;;19.84;100.00;96651.88;5007287;28;102120;-77
2023/08/22 04:36:49;;;;;;;9.43;8.53;;;;;;;19.87;100.00;96654.78;5007349;28;105093;-77
2023/08/22 04:39:18;;;;;;;8.10;7.40;;;;;;;19.92;100.00;96653.84;5007605;28;104253;-77
2023/08/22 04:41:50;;;;;;;9.60;8.60;;;;;;;20.01;100.00;96657.44;5008775;28;101968;-77
2023/08/22 04:44:31;;;;;;;7.80;7.10;;;;;;;20.07;100.00;96656.25;5008590;28;105271;-77
2023/08/22 04:46:58;;;;;;;8.20;7.40;;;;;;;20.09;100.00;96651.34;5008037;28;105330;-77
2023/08/22 04:49:25;;;;;;;7.97;7.27;;;;;;;20.07;100.00;96656.25;5008682;28;101943;-77
2023/08/22 04:51:52;;;;;;;7.83;7.20;;;;;;;20.07;100.00;96645.47;5014610;28;105372;-77
2023/08/22 04:54:19;;;;;;;8.00;7.30;;;;;;;20.21;100.00;96655.13;5012609;28;101977;-77
2023/08/22 04:56:46;;;;;;;8.47;7.57;;;;;;;20.44;100.00;96662.13;5012247;28;105109;-77
2023/08/22 04:59:13;;;;;;;9.40;7.80;;;;;;;20.68;100.00;96661.84;5011538;28;104173;-77
2023/08/22 05:01:41;;;;;;;9.23;7.67;;;;;;;20.98;100.00;96666.53;5013536;28;101946;-77
2023/08/22 05:04:08;;;;;;;9.83;7.90;;;;;;;20.97;100.00;96660.31;5011904;28;105283;-77
2023/08/22 05:06:35;;;;;;;9.03;8.03;;;;;;;21.06;100.00;96655.78;5011080;28;105982;-77
2023/08/22 05:09:05;;;;;;;8.57;7.77;;;;;;;21.14;100.00;96651.53;5011931;28;102022;-77
2023/08/22 05:11:32;;;;;;;8.07;7.33;;;;;;;21.29;100.00;96651.91;5012122;28;104864;-77
2023/08/22 05:13:59;;;;;;;8.30;7.50;;;;;;;21.22;100.00;96656.16;5014373;28;105638;-77
2023/08/22 05:16:27;;;;;;;8.23;7.47;;;;;;;21.33;100.00;96650.19;5011847;28;104929;-77
2023/08/22 05:18:56;;;;;;;8.70;7.30;;;;;;;21.38;100.00;96651.94;5011274;28;105474;-77
2023/08/22 05:21:24;;;;;;;8.10;7.30;;;;;;;21.42;100.00;96647.50;5011925;28;102013;-77
2023/08/22 05:23:51;;;;;;;8.30;7.60;;;;;;;21.51;100.00;96656.44;5010688;28;103938;-77
2023/08/22 05:26:18;;;;;;;8.47;7.67;;;;;;;21.67;100.00;96668.44;5009133;28;105622;-77
2023/08/22 05:28:45;;;;;;;7.80;6.93;;;;;;;21.76;100.00;96666.59;5011001;28;101949;-77
2023/08/22 05:31:19;;;;;;;9.53;7.50;;;;;;;21.89;100.00;96650.22;5010816;28;105424;-77
2023/08/22 05:33:46;;;;;;;11.27;7.70;;;;;;;22.05;100.00;96647.88;5009188;28;105898;-77
2023/08/22 05:36:15;;;;;;;8.10;7.30;;;;;;;22.18;100.00;96653.13;5014585;28;102024;-77
2023/08/22 05:38:42;;;;;;;9.97;7.80;;;;;;;22.22;100.00;96651.41;5010428;28;105683;-77
2023/08/22 05:41:09;;;;;;;8.97;7.60;;;;;;;22.34;100.00;96650.78;5009505;28;102086;-77
2023/08/22 05:43:37;;;;;;;9.17;7.23;;;;;;;22.49;100.00;96647.59;5008746;28;105258;-77
2023/08/22 05:46:04;;;;;;;8.63;7.80;;;;;;;22.60;100.00;96648.88;5008012;28;105446;-77
2023/08/22 05:48:31;;;;;;;8.80;7.43;;;;;;;22.72;100.00;96643.63;5009006;28;102358;-77
2023/08/22 05:50:58;;;;;;;7.47;6.70;;;;;;;22.79;100.00;96646.63;5008939;28;105297;-77
2023/08/22 05:53:26;;;;;;;8.00;7.20;;;;;;;22.90;100.00;96654.13;5008431;28;105774;-77
2023/08/22 05:55:55;;;;;;;8.73;7.70;;;;;;;22.96;100.00;96649.31;5009695;28;102487;-77
2023/08/22 05:58:22;;;;;;;8.20;7.50;;;;;;;23.01;100.00;96641.81;5013225;28;105490;-77
2023/08/22 06:00:50;;;;;;;7.53;6.83;;;;;;;23.06;100.00;96654.41;5010445;28;101878;-77
2023/08/22 06:03:18;;;;;;;7.77;6.97;;;;;;;23.20;100.00;96644.16;5009060;28;105220;-77
2023/08/22 06:05:45;;;;;;;7.30;6.63;;;;;;;23.36;100.00;96650.66;5009899;28;105742;-77
2023/08/22 06:08:13;;;;;;;8.83;7.73;;;;;;;23.42;100.00;96646.63;5011760;28;102036;-77
2023/08/22 06:10:44;;;;;;;8.50;6.67;;;;;;;23.56;100.00;96655.38;5010566;28;105526;-77
2023/08/22 06:13:11;;;;;;;8.03;6.93;;;;;;;23.76;100.00;96654.66;5009519;28;105581;-77
2023/08/22 06:15:40;;;;;;;7.60;6.90;;;;;;;23.72;100.00;96649.09;5010180;28;101961;-77
2023/08/22 06:18:08;;;;;;;10.87;7.63;;;;;;;23.88;100.00;96641.16;5010208;28;104840;-77
2023/08/22 06:20:38;;;;;;;8.83;7.47;;;;;;;23.99;100.00;96647.84;5012995;28;105847;-77
2023/08/22 06:23:06;;;;;;;9.53;7.90;;;;;;;23.96;100.00;96645.75;5009979;28;105295;-77
2023/08/22 06:25:33;;;;;;;7.23;6.53;;;;;;;24.15;100.00;96640.69;5009386;28;105735;-77
2023/08/22 06:28:02;;;;;;;7.90;7.00;;;;;;;24.26;100.00;96650.84;5009987;28;102191;-77
2023/08/22 06:30:29;;;;;;;9.60;7.60;;;;;;;24.32;100.00;96646.00;5010025;28;105369;-77
2023/08/22 06:32:56;;;;;;;8.77;7.87;;;;;;;24.36;100.00;96653.16;5009369;28;106180;-77
2023/08/22 06:35:24;;;;;;;7.87;7.10;;;;;;;24.49;100.00;96651.31;5010101;28;102353;-77
2023/08/22 06:37:51;;;;;;;9.63;8.17;;;;;;;24.42;100.00;96653.78;5010014;28;105194;-77
2023/08/22 06:40:18;;;;;;;9.90;7.13;;;;;;;24.54;100.00;96653.84;5009208;28;105267;-77
2023/08/22 06:42:45;;;;;;;9.60;7.37;;;;;;;24.58;100.00;96650.13;5013282;28;101962;-77
2023/08/22 06:45:14;;;;;;;8.27;7.40;;;;;;;24.39;100.00;96651.72;5009120;28;105498;-77
2023/08/22 06:47:41;;;;;;;7.70;6.90;;;;;;;24.52;100.00;96645.22;5009278;28;102012;-77
2023/08/22 06:50:09;;;;;;;9.17;6.87;;;;;;;24.79;100.00;96655.56;5009939;28;104236;-77
2023/08/22 06:52:36;;;;;;;8.27;7.47;;;;;;;24.82;100.00;96642.09;5009174;28;105881;-77
2023/08/22 06:55:04;;;;;;;9.37;7.00;;;;;;;24.94;100.00;96653.03;5010866;28;101977;-77
2023/08/22 06:57:30;;;;;;;9.80;7.10;;;;;;;25.23;100.00;96654.81;5009691;28;105219;-77
2023/08/22 06:59:57;;;;;;;8.80;6.73;;;;;;;25.40;100.00;96655.41;5010392;28;101889;-78
2023/08/22 07:02:26;;;;;;;9.43;7.00;;;;;;;25.47;100.00;96665.75;5013020;28;101961;-78
2023/08/22 07:04:53;;;;;;;8.27;6.47;;;;;;;25.72;100.00;96654.56;5008698;28;105701;-78
2023/08/22 07:07:20;;;;;;;10.23;6.83;;;;;;;25.71;100.00;96663.09;5009475;28;102248;-78
2023/08/22 07:09:48;;;;;;;10.07;6.80;;;;;;;25.94;100.00;96656.06;5009699;28;105154;-78
2023/08/22 07:12:15;;;;;;;7.53;6.37;;;;;;;26.02;100.00;96655.16;5008560;28;105396;-78
2023/08/22 07:14:42;;;;;;;9.27;6.93;;;;;;;25.97;100.00;96660.81;5008893;28;102027;-78
2023/08/22 07:17:09;;;;;;;7.60;6.80;;;;;;;26.17;100.00;96657.19;5009415;28;105530;-78
2023/08/22 07:19:37;;;;;;;10.43;6.60;;;;;;;26.43;100.00;96660.31;5010033;28;103037;-78
2023/08/22 07:22:05;;;;;;;7.23;6.53;;;;;;;26.18;100.00;96658.75;5009206;28;101944;-78
2023/08/22 07:24:31;;;;;;;9.00;6.90;;;;;;;26.49;100.00;96661.66;5013112;28;103131;-78
2023/08/22 07:26:58;;;;;;;9.73;7.13;;;;;;;26.50;100.00;96665.97;5009336;28;102047;-78
2023/08/22 07:29:25;;;;;;;7.87;6.63;;;;;;;26.36;100.00;96671.81;5009201;28;104307;-78
2023/08/22 07:31:57;;;;;;;8.93;6.80;;;;;;;26.53;100.00;96668.03;5008607;28;103268;-78
2023/08/22 07:34:24;;;;;;;8.20;7.07;;;;;;;26.66;100.00;96675.06;5009195;28;101866;-78
2023/08/22 07:36:53;;;;;;;8.07;6.40;;;;;;;26.98;100.00;96672.06;5009090;28;105134;-78
2023/08/22 07:39:21;;;;;;;8.30;5.93;;;;;;;27.22;100.00;96673.94;5008185;28;105818;-78
2023/08/22 07:41:48;;;;;;;8.57;7.00;;;;;;;27.14;100.00;96680.31;5008915;28;101880;-78
2023/08/22 07:44:15;;;;;;;7.80;6.53;;;;;;;27.00;100.00;96677.19;5008776;28;105431;-78
2023/08/22 07:46:42;;;;;;;8.17;6.63;;;;;;;26.81;100.00;96682.50;5011183;28;104485;-78
2023/08/22 07:49:09;;;;;;;6.93;6.33;;;;;;;27.09;100.00;96677.84;5009175;28;104222;-78
2023/08/22 07:51:37;;;;;;;9.27;6.97;;;;;;;26.86;100.00;96679.53;5008420;28;102431;-78
2023/08/22 07:54:06;;;;;;;8.73;6.43;;;;;;;26.84;100.00;96676.34;5008569;28;102133;-78
2023/08/22 07:56:34;;;;;;;7.47;6.63;;;;;;;27.09;100.00;96678.63;5008771;28;105542;-78
2023/08/22 07:59:00;;;;;;;7.20;6.47;;;;;;;27.11;100.00;96681.81;5007961;28;102698;-78
2023/08/22 08:01:28;;;;;;;8.67;6.97;;;;;;;27.34;100.00;96673.88;5008607;28;101899;-78
2023/08/22 08:03:55;;;;;;;8.47;6.50;;;;;;;27.51;100.00;96673.56;5009990;28;101926;-78
2023/08/22 08:06:23;;;;;;;8.67;6.03;;;;;;;27.66;100.00;96678.22;5008005;28;104678;-78
2023/08/22 08:08:49;;;;;;;7.53;6.30;;;;;;;27.89;100.00;96679.22;5011919;28;102135;-78
2023/08/22 08:11:18;;;;;;;7.00;6.30;;;;;;;28.16;100.00;96678.31;5007807;28;105310;-78
2023/08/22 08:13:45;;;;;;;9.73;6.47;;;;;;;28.32;100.00;96679.06;5008523;28;101974;-78
2023/08/22 08:16:12;;;;;;;7.03;6.33;;;;;;;28.36;100.00;96677.19;5008400;28;105580;-78
2023/08/22 08:18:39;;;;;;;8.97;6.33;;;;;;;28.47;100.00;96683.72;5008118;28;105894;-78
2023/08/22 08:21:06;;;;;;;11.30;6.53;;;;;;;28.51;100.00;96673.66;5008380;28;101989;-78
2023/08/22 08:23:33;;;;;;;8.13;6.30;;;;;;;28.62;100.00;96675.50;5007940;28;105164;-78
2023/08/22 08:26:01;;;;;;;7.77;6.47;;;;;;;28.82;100.00;96674.34;5006763;28;104069;-78
2023/08/22 08:28:30;;;;;;;7.60;6.43;;;;;;;28.93;100.00;96680.03;5008403;28;102281;-78
2023/08/22 08:30:57;;;;;;;11.68;6.47;;;;;;;28.79;100.00;96679.75;5012469;28;102553;-78
2023/08/22 08:33:23;;;;;;;7.30;6.60;;;;;;;28.52;100.00;96675.25;5008149;28;102042;-78
2023/08/22 08:35:50;;;;;;;8.45;6.72;;;;;;;28.99;100.00;96676.66;5008345;28;104186;-78
2023/08/22 08:38:17;;;;;;;13.35;6.75;;;;;;;29.22;100.00;96677.53;5007589;28;105570;-78
2023/08/22 08:40:45;;;;;;;10.77;6.75;;;;;;;29.26;100.00;96666.63;5008235;28;102000;-78
2023/08/22 08:43:12;;;;;;;7.72;6.57;;;;;;;29.48;100.00;96674.09;5008098;28;105006;-78
2023/08/22 08:45:40;;;;;;;7.35;6.32;;;;;;;29.31;100.00;96671.81;5007285;28;105703;-78
2023/08/22 08:48:08;;;;;;;6.68;6.07;;;;;;;29.22;100.00;96676.72;5007580;28;102963;-78
2023/08/22 08:50:37;;;;;;;6.70;6.03;;;;;;;29.44;100.00;96675.97;5008122;28;105254;-78
2023/08/22 08:53:05;;;;;;;8.85;5.90;;;;;;;29.62;100.00;96675.16;5011891;28;102770;-78
2023/08/22 08:55:33;;;;;;;8.55;6.43;;;;;;;29.54;100.00;96678.16;5008094;28;105130;-78
2023/08/22 08:58:00;;;;;;;7.85;6.47;;;;;;;29.67;100.00;96680.34;5007444;28;104472;-78
2023/08/22 09:00:27;;;;;;;6.95;6.32;;;;;;;29.57;100.00;96672.72;5007690;28;102032;-78
2023/08/22 09:02:55;;;;;;;8.60;6.50;;;;;;;29.78;100.00;96677.78;5007794;28;105059;-78
2023/08/22 09:05:23;;;;;;;8.07;6.00;;;;;;;29.67;100.00;96683.09;5006976;28;105698;-78
2023/08/22 09:07:49;;;;;;;10.40;6.50;;;;;;;29.43;100.00;96682.59;5007793;28;102008;-78
2023/08/22 09:10:32;;;;;;;7.05;6.40;;;;;;;29.58;100.00;96679.78;5007779;28;105545;-78
2023/08/22 09:13:03;;;;;;;8.00;6.25;;;;;;;29.94;100.00;96670.19;5010640;28;105869;-78
2023/08/22 09:15:30;;;;;;;8.27;6.15;;;;;;;29.83;100.00;96675.53;5007769;28;105522;-78
2023/08/22 09:17:58;;;;;;;8.10;6.43;;;;;;;30.14;100.00;96667.03;5007052;28;105185;-78
2023/08/22 09:20:26;;;;;;;7.22;6.00;;;;;;;30.28;100.00;96666.44;5007613;28;101954;-78
2023/08/22 09:22:53;;;;;;;7.68;6.80;;;;;;;30.59;100.00;96669.66;5007773;28;105191;-78
2023/08/22 09:25:20;;;;;;;7.82;7.00;;;;;;;30.55;100.00;96665.25;5006569;28;105683;-78
2023/08/22 09:27:50;;;;;;;8.60;6.20;;;;;;;30.48;100.00;96673.41;5007822;28;101994;-78
2023/08/22 09:30:20;;;;;;;7.30;6.32;;;;;;;30.59;100.00;96672.41;5007527;28;104922;-78
2023/08/22 09:32:59;;;;;;;7.47;6.55;;;;;;;30.76;100.00;96668.31;5006824;28;104501;-78
2023/08/22 09:35:30;;;;;;;8.10;6.30;;;;;;;30.66;100.00;96666.22;5010803;28;101948;-78
2023/08/22 09:38:06;;;;;;;6.60;5.97;;;;;;;30.55;100.00;96659.78;5009756;28;105767;-78
2023/08/22 09:40:33;;;;;;;7.00;6.30;;;;;;;30.63;100.00;96666.97;5010848;28;102018;-78
2023/08/22 09:43:00;;;;;;;7.22;6.30;;;;;;;30.71;100.00;96669.44;5010813;28;104778;-78
2023/08/22 09:45:31;;;;;;;8.65;5.80;;;;;;;30.59;100.00;96668.84;5010124;28;105997;-78
2023/08/22 09:48:01;;;;;;;10.35;6.40;;;;;;;30.59;100.00;96663.38;5010102;28;101988;-78
2023/08/22 09:50:37;;;;;;;7.28;6.40;;;;;;;30.94;100.00;96656.41;5010723;28;105012;-78
2023/08/22 09:53:05;;;;;;;6.68;5.82;;;;;;;30.91;96.78;96650.88;5010173;28;106017;-78
2023/08/22 09:55:32;;;;;;;7.15;6.35;;;;;;;30.90;100.00;96647.31;5010511;28;102083;-78
2023/08/22 09:58:01;;;;;;;6.15;5.68;;;;;;;31.02;98.55;96657.28;5013363;28;105197;-78
2023/08/22 10:00:30;;;;;;;6.30;5.68;;;;;;;31.36;100.00;96656.09;5010549;28;102175;-78
2023/08/22 10:03:00;;;;;;;7.50;5.40;;;;;;;31.65;95.03;96645.00;5010495;28;104857;-78
2023/08/22 10:05:27;;;;;;;6.97;5.50;;;;;;;31.70;95.58;96647.41;5009767;28;105449;-78
2023/08/22 10:07:54;;;;;;;7.43;5.78;;;;;;;31.89;100.00;96643.66;5010403;28;102303;-78
2023/08/22 10:10:23;;;;;;;7.38;5.22;;;;;;;32.14;89.50;96650.16;5010475;28;104828;-78
2023/08/22 10:12:51;;;;;;;7.68;5.50;;;;;;;32.43;98.18;96638.19;5009723;28;105656;-78
2023/08/22 10:15:18;;;;;;;7.32;5.50;;;;;;;32.45;86.78;96646.84;5010253;28;101959;-78
2023/08/22 10:17:46;;;;;;;6.85;5.30;;;;;;;32.66;93.67;96645.00;5010311;28;105219;-78
2023/08/22 10:20:15;;;;;;;7.90;5.45;;;;;;;32.62;84.01;96646.13;5013370;28;105764;-78
2023/08/22 10:22:42;;;;;;;6.05;5.45;;;;;;;32.96;80.81;96645.53;5010212;28;104046;-78
2023/08/22 10:25:09;;;;;;;5.50;5.00;;;;;;;32.96;79.88;96634.53;5009363;28;105183;-78
2023/08/22 10:27:39;;;;;;;6.22;5.63;;;;;;;33.29;81.01;96639.00;5010245;28;101908;-78
2023/08/22 10:30:26;;;;;;;5.97;5.43;;;;;;;33.65;85.92;96635.09;5010089;28;105559;-78
2023/08/22 10:33:07;;;;;;;7.05;5.15;;;;;;;33.51;76.39;96638.63;5002699;28;105820;-78
2023/08/22 10:35:35;;;;;;;7.68;5.75;;;;;;;33.66;81.81;96631.94;5011553;28;101973;-78
2023/08/22 10:38:03;;;;;;;5.90;5.30;;;;;;;33.68;82.20;96620.53;5010096;28;104974;-78
2023/08/22 10:40:34;;;;;;;5.18;4.68;;;;;;;33.30;74.43;96626.78;5009271;28;105442;-78
2023/08/22 10:43:13;;;;;;;5.50;4.97;;;;;;;33.93;81.73;96624.09;5013199;28;101941;-78
2023/08/22 10:45:59;;;;;;;5.82;5.22;;;;;;;34.08;76.09;96615.41;5009218;28;105452;-78
2023/08/22 10:48:26;;;;;;;6.72;5.35;;;;;;;34.27;78.51;96622.53;5010044;28;101961;-78
2023/08/22 10:51:06;;;;;;;5.53;4.93;;;;;;;34.57;69.83;96611.78;5009836;28;105164;-78
2023/08/22 10:53:42;;;;;;;5.35;4.85;;;;;;;34.15;62.88;96617.38;5009041;28;105268;-78
2023/08/22 10:56:24;;;;;;;5.97;5.28;;;;;;;34.22;73.39;96617.38;5011258;28;101987;-78
2023/08/22 10:59:01;;;;;;;5.57;5.00;;;;;;;34.15;67.12;96609.06;5011256;28;102576;-78
2023/08/22 11:01:30;;;;;;;5.53;5.03;;;;;;;34.41;70.39;96611.44;5008838;28;105784;-78
2023/08/22 11:03:57;;;;;;;5.63;5.05;;;;;;;34.73;64.75;96609.34;5013074;28;101907;-78
2023/08/22 11:06:25;;;;;;;5.22;4.72;;;;;;;34.95;58.80;96613.63;5008927;28;105908;-78
2023/08/22 11:08:52;;;;;;;9.18;5.43;;;;;;;35.04;71.38;96609.22;5009661;28;102377;-78
2023/08/22 11:11:21;;;;;;;7.15;5.22;;;;;;;34.77;57.15;96604.66;5009496;28;105389;-78
2023/08/22 11:13:48;;;;;;;6.10;5.45;;;;;;;34.35;61.99;96602.78;5008928;28;104351;-78
2023/08/22 11:16:16;;;;;;;7.75;5.10;;;;;;;34.39;67.81;96605.53;5010614;28;102005;-78
2023/08/22 11:18:44;;;;;;;6.95;5.32;;;;;;;34.18;67.16;96605.53;5009266;28;104938;-78
2023/08/22 11:21:11;;;;;;;6.00;4.72;;;;;;;34.93;67.87;96600.22;5008662;28;105864;-78